Time;durP1;ratioP1;P1;durP2;ratioP2;P2;SDS_P1;SDS_P2;PMS_P1;PMS_P2;Temp;Humidity;BMP_temperature;BMP_pressure;BME280_temperature;BME280_humidity;BME280_pressure;Samples;Min_cycle;Max_cycle;Signal;HPM_P1;HPM_P2
2023/01/05 00:01:50;;;;;;;64.90;10.85;;;;;;;10.01;100.00;101297.94;4981477;28;20026;-85
2023/01/05 00:04:15;;;;;;;61.80;9.32;;;;;;;10.16;100.00;101316.66;4978818;28;20034;-85
2023/01/05 00:06:41;;;;;;;63.67;8.52;;;;;;;10.12;100.00;101308.19;4988358;28;20041;-85
2023/01/05 00:09:09;;;;;;;57.47;9.95;;;;;;;10.13;100.00;101323.00;4988422;28;20539;-85
2023/01/05 00:22:51;;;;;;;61.47;10.45;;;;;;;10.13;100.00;101309.00;4992632;28;20506;-86
2023/01/05 00:25:26;;;;;;;82.63;12.70;;;;;;;10.15;100.00;101320.63;4991977;28;20049;-85
2023/01/05 00:27:52;;;;;;;66.55;9.70;;;;;;;10.11;100.00;101320.53;4992807;28;20391;-85
2023/01/05 00:30:22;;;;;;;63.15;11.52;;;;;;;10.04;100.00;101302.81;4989689;28;20026;-85
2023/01/05 00:32:48;;;;;;;47.78;8.38;;;;;;;10.13;100.00;101323.00;4991564;28;20489;-85
2023/01/05 00:35:14;;;;;;;55.17;8.60;;;;;;;10.15;100.00;101320.63;4988678;28;20052;-86
2023/01/05 00:37:40;;;;;;;50.38;9.38;;;;;;;9.94;100.00;101302.16;4986667;28;20030;-86
2023/01/05 00:40:09;;;;;;;77.38;11.38;;;;;;;9.98;100.00;101307.84;5004527;28;20065;-85
2023/01/05 00:42:34;;;;;;;74.82;10.30;;;;;;;10.02;100.00;101322.75;4988895;28;20072;-86
2023/01/05 00:44:59;;;;;;;51.67;8.88;;;;;;;9.94;100.00;101318.16;4990326;28;20172;-86
2023/01/05 00:47:25;;;;;;;56.10;11.55;;;;;;;9.95;100.00;101309.41;4989781;28;20030;-84
2023/01/05 00:49:50;;;;;;;63.65;13.55;;;;;;;10.05;100.00;101327.59;4991778;28;20033;-84
2023/01/05 00:52:16;;;;;;;58.63;9.73;;;;;;;9.98;100.00;101319.84;4988609;28;20062;-85
2023/01/05 00:54:41;;;;;;;60.33;9.80;;;;;;;10.00;100.00;101321.50;4988499;28;20025;-85
2023/01/05 00:57:10;;;;;;;71.57;10.23;;;;;;;9.86;100.00;101319.94;4989132;28;20026;-85
2023/01/05 00:59:35;;;;;;;44.72;9.18;;;;;;;9.98;100.00;101322.66;4990763;28;20109;-84
2023/01/05 01:02:00;;;;;;;67.25;9.23;;;;;;;9.84;100.00;101327.88;4992031;28;20122;-85
2023/01/05 01:04:26;;;;;;;58.63;8.32;;;;;;;9.97;100.00;101348.16;5005283;28;20023;-85
2023/01/05 01:06:53;;;;;;;66.65;11.20;;;;;;;10.00;100.00;101346.66;4996343;28;20034;-85
2023/01/05 01:09:18;;;;;;;59.60;9.85;;;;;;;9.98;100.00;101339.44;4995485;28;20049;-85
2023/01/05 01:11:44;;;;;;;65.90;11.77;;;;;;;9.93;100.00;101336.91;4996781;28;20104;-85
2023/01/05 01:14:11;;;;;;;41.45;7.32;;;;;;;9.92;100.00;101324.09;4992145;28;20471;-84
2023/01/05 01:16:37;;;;;;;58.38;11.20;;;;;;;9.94;100.00;101338.53;5002953;28;20537;-85
2023/01/05 01:19:02;;;;;;;46.28;9.32;;;;;;;9.96;100.00;101344.56;5001345;28;20030;-85
2023/01/05 01:21:28;;;;;;;45.25;8.20;;;;;;;9.83;100.00;101334.66;5002853;28;20026;-84
2023/01/05 01:23:53;;;;;;;58.30;7.70;;;;;;;9.94;100.00;101355.31;4987939;28;20040;-85
2023/01/05 01:26:18;;;;;;;63.83;9.77;;;;;;;9.90;100.00;101350.81;4991980;28;20065;-85
2023/01/05 01:28:46;;;;;;;49.10;10.43;;;;;;;9.94;100.00;101360.91;4988092;28;20042;-85
2023/01/05 01:31:12;;;;;;;62.00;8.60;;;;;;;9.92;100.00;101366.03;4990322;28;20054;-86
2023/01/05 01:33:38;;;;;;;49.78;7.93;;;;;;;9.96;100.00;101352.97;4990423;28;20427;-85
2023/01/05 01:36:05;;;;;;;64.15;8.32;;;;;;;9.86;100.00;101347.09;4991327;28;20589;-85
2023/01/05 01:38:30;;;;;;;62.20;8.43;;;;;;;9.86;100.00;101341.50;4994561;28;20026;-85
2023/01/05 01:40:59;;;;;;;53.13;8.82;;;;;;;9.83;100.00;101359.84;4985212;28;20033;-86
2023/01/05 01:43:48;;;;;;;49.65;8.57;;;;;;;9.91;100.00;101370.03;4987660;28;20041;-85
2023/01/05 01:46:15;;;;;;;51.35;7.50;;;;;;;9.86;100.00;101375.88;5000068;28;20088;-84
2023/01/05 01:49:02;;;;;;;61.05;8.43;;;;;;;9.92;100.00;101368.84;4982320;28;20026;-84
2023/01/05 01:51:43;;;;;;;47.35;7.60;;;;;;;9.90;100.00;101384.34;5001858;28;20116;-84
2023/01/05 01:54:13;;;;;;;55.35;8.07;;;;;;;9.87;100.00;101388.69;4991021;28;20022;-84
2023/01/05 01:56:44;;;;;;;52.47;9.10;;;;;;;9.87;100.00;101383.09;4988314;28;20092;-86
2023/01/05 01:59:10;;;;;;;52.42;8.75;;;;;;;9.98;100.00;101405.75;5006222;28;20037;-84
2023/01/05 02:01:36;;;;;;;60.78;10.38;;;;;;;9.96;100.00;101400.50;4985193;28;20032;-84
2023/01/05 02:04:03;;;;;;;47.17;6.72;;;;;;;9.94;100.00;101391.66;4987382;28;20089;-84
2023/01/05 02:06:29;;;;;;;49.53;9.60;;;;;;;9.89;100.00;101400.34;4989865;28;20037;-85
2023/01/05 02:08:55;;;;;;;56.50;9.38;;;;;;;9.85;100.00;101396.63;4989262;28;20039;-85
2023/01/05 02:11:57;;;;;;;61.05;9.00;;;;;;;9.89;100.00;101396.72;5003808;28;20034;-85
2023/01/05 02:14:32;;;;;;;62.55;7.70;;;;;;;9.93;100.00;101409.63;4989694;28;20026;-84
2023/01/05 02:17:04;;;;;;;75.53;9.68;;;;;;;9.90;100.00;101407.53;5002262;28;20045;-84
2023/01/05 02:19:47;;;;;;;65.20;11.25;;;;;;;9.85;100.00;101402.22;4997766;28;20117;-85
2023/01/05 02:22:16;;;;;;;50.63;7.32;;;;;;;9.94;100.00;101408.44;4999297;28;20042;-85
2023/01/05 02:25:12;;;;;;;51.45;7.32;;;;;;;9.89;100.00;101407.91;5001868;28;20457;-85
2023/01/05 02:27:57;;;;;;;59.58;7.40;;;;;;;9.89;100.00;101407.91;4991836;28;20034;-85
2023/01/05 02:30:32;;;;;;;49.33;9.05;;;;;;;9.88;100.00;101421.06;4985717;28;20060;-85
2023/01/05 02:33:35;;;;;;;45.13;7.57;;;;;;;9.92;100.00;101410.78;5000460;28;20026;-85
2023/01/05 02:36:10;;;;;;;47.75;7.50;;;;;;;9.87;100.00;101411.06;4982022;28;20057;-85
2023/01/05 02:39:01;;;;;;;57.42;9.27;;;;;;;9.87;100.00;101405.47;4998350;28;20172;-85
2023/01/05 02:41:44;;;;;;;58.03;9.20;;;;;;;9.82;100.00;101411.31;4998791;28;20080;-85
2023/01/05 02:44:14;;;;;;;60.45;9.57;;;;;;;9.74;100.00;101403.94;4996686;28;20077;-84
2023/01/05 02:46:40;;;;;;;74.88;9.40;;;;;;;9.80;100.00;101422.03;4984762;28;20092;-85
2023/01/05 02:49:06;;;;;;;61.05;10.27;;;;;;;9.74;100.00;101401.94;4984108;28;20482;-84
2023/01/05 02:51:37;;;;;;;51.60;11.90;;;;;;;9.81;100.00;101418.09;4981606;28;20030;-85
2023/01/05 02:54:14;;;;;;;61.45;7.78;;;;;;;9.84;100.00;101419.34;4983450;28;20104;-85
2023/01/05 02:56:45;;;;;;;46.83;7.63;;;;;;;9.76;100.00;101415.53;4992543;28;20534;-85
2023/01/05 02:59:16;;;;;;;66.82;8.77;;;;;;;9.85;100.00;101423.78;4980663;28;20129;-85
2023/01/05 03:01:46;;;;;;;78.28;12.80;;;;;;;9.86;100.00;101426.19;4983393;28;20454;-85
2023/01/05 03:04:28;;;;;;;56.45;8.70;;;;;;;9.72;100.00;101420.25;4983430;28;20085;-85
2023/01/05 03:06:58;;;;;;;57.20;9.32;;;;;;;9.73;100.00;101427.47;4983738;28;20026;-85
2023/01/05 03:09:35;;;;;;;58.20;8.35;;;;;;;9.65;100.00;101425.63;4986632;28;20069;-85
2023/01/05 03:15:31;;;;;;;56.67;9.20;;;;;;;9.55;100.00;101416.63;4981536;28;20088;-84
2023/01/05 03:17:59;;;;;;;56.72;9.40;;;;;;;9.60;100.00;101425.91;4984470;28;20030;-84
2023/01/05 03:20:29;;;;;;;58.03;8.20;;;;;;;9.54;100.00;101425.34;4981212;28;20434;-83
2023/01/05 03:37:43;;;;;;;60.08;7.78;;;;;;;9.65;100.00;101415.25;4985397;28;20045;-85
2023/01/05 03:40:15;;;;;;;64.50;11.20;;;;;;;9.64;100.00;101424.03;4981088;28;20027;-85
2023/01/05 03:42:42;;;;;;;;;;;;;;;9.68;100.00;101436.94;4996759;28;20030;-85
2023/01/05 03:45:09;;;;;;;52.50;8.77;;;;;;;9.71;100.00;101436.19;4984513;28;20036;-85
2023/01/05 03:47:35;;;;;;;42.05;9.38;;;;;;;9.71;100.00;101438.19;4978561;28;20483;-85
2023/01/05 03:50:00;;;;;;;43.58;6.63;;;;;;;9.72;100.00;101437.84;4978985;28;20033;-85
2023/01/05 03:52:26;;;;;;;57.45;6.93;;;;;;;9.72;100.00;101421.06;4992040;28;20054;-85
2023/01/05 03:54:51;;;;;;;62.38;8.57;;;;;;;9.70;100.00;101440.19;4980130;28;20053;-86
2023/01/05 03:57:16;;;;;;;56.25;8.30;;;;;;;9.76;100.00;101446.28;4998968;28;20045;-85
2023/01/05 03:59:42;;;;;;;53.97;10.60;;;;;;;9.74;100.00;101437.47;4982959;28;20073;-85
2023/01/05 04:02:07;;;;;;;49.25;8.75;;;;;;;9.72;100.00;101437.84;5000555;28;20108;-86
2023/01/05 04:04:32;;;;;;;68.05;11.63;;;;;;;9.71;100.00;101441.78;4987102;28;20041;-86
2023/01/05 04:06:58;;;;;;;54.60;9.40;;;;;;;9.68;100.00;101431.34;4987680;28;20041;-86
2023/01/05 04:09:23;;;;;;;58.42;7.45;;;;;;;9.79;100.00;101442.81;4988256;28;20038;-86
2023/01/05 04:11:48;;;;;;;66.88;9.18;;;;;;;9.70;100.00;101434.59;4987910;28;20031;-86
2023/01/05 04:14:14;;;;;;;61.03;9.88;;;;;;;9.79;100.00;101445.59;4988832;28;20121;-86
2023/01/05 04:16:39;;;;;;;51.90;6.65;;;;;;;9.75;100.00;101448.28;4987923;28;20051;-85
2023/01/05 04:19:04;;;;;;;53.30;7.82;;;;;;;9.69;100.00;101440.53;4987350;28;20394;-86
2023/01/05 04:21:30;;;;;;;62.45;8.95;;;;;;;9.71;100.00;101438.19;4986178;28;20113;-86
2023/01/05 04:23:55;;;;;;;56.20;8.68;;;;;;;9.76;100.00;101454.69;4986594;28;20122;-86
2023/01/05 04:26:20;;;;;;;51.47;8.98;;;;;;;9.75;100.00;101451.09;4985352;28;20030;-85
2023/01/05 04:28:46;;;;;;;68.97;9.18;;;;;;;9.74;100.00;101455.06;4994039;28;20521;-85
2023/01/05 04:31:11;;;;;;;57.00;7.97;;;;;;;9.78;100.00;101460.72;4988484;28;20031;-85
2023/01/05 04:33:38;;;;;;;54.35;7.95;;;;;;;9.76;100.00;101458.31;4984695;28;20149;-85
2023/01/05 04:36:05;;;;;;;61.35;10.00;;;;;;;9.68;100.00;101447.31;4990472;28;20031;-85
2023/01/05 04:38:30;;;;;;;53.42;9.27;;;;;;;9.79;100.00;101470.75;5000888;28;20471;-85
2023/01/05 04:40:56;;;;;;;44.05;7.57;;;;;;;9.76;100.00;101477.06;4987058;28;20037;-85
2023/01/05 04:43:21;;;;;;;53.15;7.28;;;;;;;9.75;100.00;101475.44;4993251;28;20030;-85
2023/01/05 04:45:48;;;;;;;53.65;7.90;;;;;;;9.75;100.00;101469.84;4987105;28;20497;-85
2023/01/05 04:48:14;;;;;;;51.97;7.13;;;;;;;9.75;100.00;101475.44;4987219;28;20034;-85
2023/01/05 04:50:39;;;;;;;48.45;9.13;;;;;;;9.73;100.00;101472.19;5001443;28;20029;-86
2023/01/05 04:53:05;;;;;;;43.05;9.52;;;;;;;9.62;100.00;101460.72;4987036;28;20038;-85
2023/01/05 04:55:30;;;;;;;50.97;9.05;;;;;;;9.69;100.00;101465.69;4989887;28;20030;-84
2023/01/05 04:57:55;;;;;;;53.38;9.45;;;;;;;9.74;100.00;101473.81;4988414;28;20064;-84
2023/01/05 05:00:21;;;;;;;58.70;7.93;;;;;;;9.72;100.00;101481.75;4989766;28;20060;-86
2023/01/05 05:02:46;;;;;;;54.13;9.57;;;;;;;9.73;100.00;101483.38;5004405;28;20118;-85
2023/01/05 05:05:12;;;;;;;47.67;7.70;;;;;;;9.70;100.00;101495.28;4985419;28;20023;-86
2023/01/05 05:07:37;;;;;;;46.67;7.32;;;;;;;9.67;100.00;101484.78;4983735;28;20576;-85
2023/01/05 05:10:03;;;;;;;54.47;7.82;;;;;;;9.60;100.00;101477.03;4985999;28;20118;-85
2023/01/05 05:12:29;;;;;;;53.00;8.48;;;;;;;9.69;100.00;101499.22;4987191;28;20045;-86
2023/01/05 05:14:54;;;;;;;60.58;6.88;;;;;;;9.64;100.00;101505.91;4990921;28;20034;-86
2023/01/05 05:17:19;;;;;;;60.15;8.75;;;;;;;9.64;100.00;101510.69;4989595;28;20031;-85
2023/01/05 05:19:45;;;;;;;56.90;7.88;;;;;;;9.53;100.00;101502.81;5003254;28;20564;-86
2023/01/05 05:22:10;;;;;;;60.08;7.95;;;;;;;9.57;100.00;101512.09;4990064;28;20081;-85
2023/01/05 05:24:36;;;;;;;69.05;9.98;;;;;;;9.56;100.00;101502.06;5006425;28;20026;-84
2023/01/05 05:27:01;;;;;;;59.75;8.93;;;;;;;9.59;100.00;101516.50;4994397;28;20407;-85
2023/01/05 05:29:27;;;;;;;40.95;6.88;;;;;;;9.58;100.00;101512.91;4988625;28;20470;-85
2023/01/05 05:31:52;;;;;;;39.40;7.57;;;;;;;9.63;100.00;101520.22;4990196;28;20030;-86
2023/01/05 05:34:17;;;;;;;65.80;10.15;;;;;;;9.60;100.00;101518.16;4992381;28;20385;-85
2023/01/05 05:36:43;;;;;;;59.22;9.38;;;;;;;9.65;100.00;101531.84;4989412;28;20035;-85
2023/01/05 05:39:12;;;;;;;48.28;10.38;;;;;;;9.54;100.00;101515.59;5004014;28;20081;-84
2023/01/05 05:41:38;;;;;;;58.35;10.50;;;;;;;9.63;100.00;101525.81;4990613;28;20405;-86
2023/01/05 05:44:03;;;;;;;45.70;6.68;;;;;;;9.62;100.00;101533.38;4987014;28;20022;-85
2023/01/05 05:46:29;;;;;;;56.55;7.93;;;;;;;9.67;100.00;101543.50;4986736;28;20414;-85
2023/01/05 05:48:56;;;;;;;66.93;9.90;;;;;;;9.65;100.00;101537.44;4991089;28;20026;-85
2023/01/05 05:51:22;;;;;;;61.25;9.63;;;;;;;9.68;100.00;101536.75;5000867;28;20030;-85
2023/01/05 05:53:47;;;;;;;50.30;7.75;;;;;;;9.67;100.00;101549.09;4991719;28;20129;-85
2023/01/05 05:56:13;;;;;;;59.17;8.57;;;;;;;9.62;100.00;101538.16;4983997;28;20453;-86
2023/01/05 05:58:38;;;;;;;43.20;7.20;;;;;;;9.70;100.00;101545.59;5004501;28;20041;-85
2023/01/05 06:01:04;;;;;;;58.45;8.68;;;;;;;9.63;100.00;101540.59;4996389;28;20046;-86
2023/01/05 06:03:29;;;;;;;80.82;11.65;;;;;;;9.55;100.00;101549.97;4987006;28;20085;-85
2023/01/05 06:05:54;;;;;;;47.90;7.20;;;;;;;9.65;100.00;101548.63;4989572;28;20486;-85
2023/01/05 06:08:20;;;;;;;69.43;9.00;;;;;;;9.67;100.00;101557.47;4996260;28;20070;-85
2023/01/05 06:10:48;;;;;;;45.45;7.28;;;;;;;9.55;100.00;101550.78;4988208;28;20030;-85
2023/01/05 06:13:13;;;;;;;56.10;10.30;;;;;;;9.66;100.00;101561.44;4989843;28;20029;-85
2023/01/05 06:15:38;;;;;;;54.38;7.75;;;;;;;9.67;100.00;101558.28;5005474;28;20030;-86
2023/01/05 06:18:04;;;;;;;52.70;6.90;;;;;;;9.56;100.00;101549.59;4990067;28;20026;-85
2023/01/05 06:20:29;;;;;;;51.90;9.73;;;;;;;9.59;100.00;101561.22;5004982;28;20042;-85
2023/01/05 06:22:55;;;;;;;45.25;7.63;;;;;;;9.64;100.00;101574.97;5003350;28;20065;-85
2023/01/05 06:25:20;;;;;;;74.10;11.40;;;;;;;9.57;100.00;101554.03;4989963;28;20081;-85
2023/01/05 06:27:45;;;;;;;51.75;8.02;;;;;;;9.56;100.00;101571.94;4986759;28;20045;-86
2023/01/05 06:30:11;;;;;;;52.97;7.45;;;;;;;9.65;100.00;101584.97;4990150;28;20045;-86
2023/01/05 06:32:36;;;;;;;48.63;8.85;;;;;;;9.56;100.00;101574.75;4990279;28;20027;-85
2023/01/05 06:35:02;;;;;;;62.92;7.47;;;;;;;9.53;100.00;101569.88;4997266;28;20030;-85
2023/01/05 06:37:27;;;;;;;53.15;7.78;;;;;;;9.63;100.00;101590.91;4983340;28;20121;-85
2023/01/05 06:39:55;;;;;;;38.67;6.40;;;;;;;9.63;100.00;101592.91;5001106;28;20113;-85
2023/01/05 06:42:20;;;;;;;39.63;6.10;;;;;;;9.66;100.00;101597.78;4987956;28;20030;-84
2023/01/05 06:44:45;;;;;;;50.55;7.28;;;;;;;9.62;100.00;101594.06;4993478;28;20094;-85
2023/01/05 06:47:11;;;;;;;59.30;8.60;;;;;;;9.65;100.00;101596.16;4987077;28;20034;-85
2023/01/05 06:49:36;;;;;;;55.63;10.23;;;;;;;9.57;100.00;101595.94;4985852;28;20113;-85
2023/01/05 06:52:01;;;;;;;54.33;8.27;;;;;;;9.58;100.00;101605.13;4994507;28;20038;-85
2023/01/05 06:54:27;;;;;;;53.08;8.35;;;;;;;9.54;100.00;101605.03;4983844;28;20034;-85
2023/01/05 06:56:52;;;;;;;46.33;8.27;;;;;;;9.51;100.00;101605.75;4984552;28;20025;-85
2023/01/05 06:59:17;;;;;;;37.70;7.70;;;;;;;9.61;100.00;101615.59;4995341;28;20026;-85
2023/01/05 07:01:43;;;;;;;44.03;7.43;;;;;;;9.62;100.00;101622.84;4981771;28;20030;-85
2023/01/05 07:04:08;;;;;;;42.63;6.70;;;;;;;9.60;100.00;101624.38;4979835;28;20044;-85
2023/01/05 07:06:34;;;;;;;51.50;9.32;;;;;;;9.56;100.00;101611.06;4997408;28;20042;-86
2023/01/05 07:09:00;;;;;;;66.72;8.23;;;;;;;9.59;100.00;101615.13;4976706;28;20129;-86
2023/01/05 07:11:26;;;;;;;53.83;7.75;;;;;;;9.63;100.00;101624.44;4978874;28;20497;-85
2023/01/05 07:13:51;;;;;;;60.58;9.50;;;;;;;9.60;100.00;101624.38;4999951;28;20038;-85
2023/01/05 07:16:17;;;;;;;46.38;7.85;;;;;;;9.54;100.00;101621.78;4999089;28;20121;-85
2023/01/05 07:18:42;;;;;;;46.45;7.60;;;;;;;9.62;100.00;101644.38;4980398;28;20054;-84
2023/01/05 07:21:08;;;;;;;62.13;9.30;;;;;;;9.66;100.00;101645.31;4986435;28;20030;-85
2023/01/05 07:23:36;;;;;;;52.65;8.93;;;;;;;9.67;100.00;101646.94;4979390;28;20026;-86
2023/01/05 07:26:05;;;;;;;53.40;9.50;;;;;;;9.63;100.00;101651.59;4995590;28;20033;-85
2023/01/05 07:28:31;;;;;;;46.45;7.68;;;;;;;9.68;100.00;101654.97;4978758;28;20026;-88
2023/01/05 07:30:56;;;;;;;72.07;8.57;;;;;;;9.47;100.00;101632.75;4984920;28;20026;-94
2023/01/05 07:33:22;;;;;;;49.20;9.52;;;;;;;9.52;100.00;101657.66;4986926;28;20050;-94
2023/01/05 07:35:47;;;;;;;56.10;8.95;;;;;;;9.52;100.00;101649.28;4988932;28;20037;-95
2023/01/05 07:38:12;;;;;;;47.53;9.52;;;;;;;9.53;100.00;101658.50;4997616;28;22576;-94
2023/01/05 07:40:38;;;;;;;51.30;10.02;;;;;;;9.53;100.00;101652.91;4989117;28;20034;-91
2023/01/05 07:43:04;;;;;;;58.17;9.13;;;;;;;9.48;100.00;101648.34;4989176;28;20129;-94
2023/01/05 07:45:29;;;;;;;48.13;9.73;;;;;;;9.51;100.00;101650.47;4991769;28;20015;-94
2023/01/05 07:47:55;;;;;;;67.35;11.60;;;;;;;9.47;100.00;101649.53;4986807;28;20033;-94
2023/01/05 07:50:21;;;;;;;71.13;10.07;;;;;;;9.53;100.00;101653.72;4991838;28;20394;-95
2023/01/05 07:52:46;;;;;;;44.20;8.73;;;;;;;9.42;100.00;101649.75;4987168;28;20050;-95
2023/01/05 07:55:12;;;;;;;42.30;8.25;;;;;;;9.54;100.00;101654.53;4990141;28;20363;-90
2023/01/05 07:57:38;;;;;;;51.47;8.95;;;;;;;9.52;100.00;101668.84;5002896;28;20058;-94
2023/01/05 08:00:04;;;;;;;66.82;10.40;;;;;;;9.50;100.00;101665.59;4989776;28;20030;-91
2023/01/05 08:02:30;;;;;;;39.55;8.10;;;;;;;9.55;100.00;101673.75;5004169;28;20033;-94
2023/01/05 08:04:55;;;;;;;61.83;11.15;;;;;;;9.44;100.00;101660.59;4981515;28;20018;-94
2023/01/05 08:07:20;;;;;;;54.88;8.52;;;;;;;9.43;100.00;101670.97;4985057;28;20026;-94
2023/01/05 08:12:30;;;;;;;45.25;6.90;;;;;;;9.48;100.00;101679.09;4982925;28;20040;-93
2023/01/05 08:14:55;;;;;;;55.10;8.82;;;;;;;9.55;100.00;101692.50;4981923;28;20095;-92
2023/01/05 08:17:21;;;;;;;57.28;9.27;;;;;;;9.41;100.00;101684.47;4985432;28;20025;-94
2023/01/05 08:19:46;;;;;;;58.55;8.93;;;;;;;9.52;100.00;101696.78;4998491;28;20033;-93
2023/01/05 08:22:12;;;;;;;53.55;7.22;;;;;;;9.40;100.00;101682.81;4986327;28;20026;-94
2023/01/05 08:24:37;;;;;;;53.22;9.57;;;;;;;9.53;100.00;101709.63;4996281;28;20026;-94
2023/01/05 08:27:03;;;;;;;49.92;8.50;;;;;;;9.44;100.00;101699.72;4999243;28;20026;-95
2023/01/05 08:29:28;;;;;;;49.80;9.07;;;;;;;9.45;100.00;101702.16;4981068;28;20045;-94
2023/01/05 08:31:54;;;;;;;39.35;7.22;;;;;;;9.57;100.00;101715.28;4989434;28;20060;-94
2023/01/05 08:34:19;;;;;;;56.13;10.13;;;;;;;9.57;100.00;101735.69;4996031;28;20035;-93
2023/01/05 08:36:45;;;;;;;33.78;7.85;;;;;;;9.48;100.00;101723.00;4983284;28;20092;-93
2023/01/05 08:39:11;;;;;;;46.90;9.27;;;;;;;9.43;100.00;101726.03;5004898;28;20045;-92
2023/01/05 08:41:39;;;;;;;50.45;8.10;;;;;;;9.55;100.00;101740.81;5005469;28;20026;-94
2023/01/05 08:44:17;;;;;;;43.15;8.02;;;;;;;9.52;100.00;101732.31;4996317;28;20034;-93
2023/01/05 08:46:42;;;;;;;56.17;10.18;;;;;;;9.44;100.00;101722.06;4988560;28;20034;-94
2023/01/05 08:49:08;;;;;;;38.20;7.57;;;;;;;9.36;100.00;101712.66;4998057;28;20026;-94
2023/01/05 08:51:45;;;;;;;59.00;6.72;;;;;;;9.38;100.00;101721.47;4999476;28;20097;-94
2023/01/05 08:54:13;;;;;;;48.45;8.30;;;;;;;9.39;100.00;101720.31;5001678;28;20026;-92
2023/01/05 08:56:38;;;;;;;45.13;6.97;;;;;;;9.50;100.00;101743.03;4991062;28;20035;-93
2023/01/05 08:59:06;;;;;;;43.78;6.53;;;;;;;9.43;100.00;101734.41;4998761;28;20040;-94
2023/01/05 09:01:32;;;;;;;40.95;6.45;;;;;;;9.52;100.00;101751.88;5012616;28;20095;-93
2023/01/05 09:03:57;;;;;;;30.65;7.78;;;;;;;9.55;100.00;101757.59;4993048;28;20034;-94
2023/01/05 09:06:23;;;;;;;51.13;10.15;;;;;;;9.53;100.00;101762.72;4992015;28;20022;-95
2023/01/05 09:08:51;;;;;;;55.20;8.50;;;;;;;9.52;100.00;101766.66;4998031;28;20053;-94
2023/01/05 09:11:22;;;;;;;49.10;7.40;;;;;;;9.41;100.00;101762.72;4998963;28;20137;-94
2023/01/05 09:14:00;;;;;;;41.53;7.88;;;;;;;9.52;100.00;101768.66;4996999;28;20105;-93
2023/01/05 09:16:29;;;;;;;51.58;10.13;;;;;;;9.50;100.00;101771.78;4996249;28;20085;-94
2023/01/05 09:18:57;;;;;;;52.20;8.45;;;;;;;9.42;100.00;101763.50;5011237;28;20030;-94
2023/01/05 09:21:23;;;;;;;41.97;6.55;;;;;;;9.64;100.00;101799.41;4993252;28;20096;-93
2023/01/05 09:23:48;;;;;;;56.90;8.35;;;;;;;9.49;100.00;101781.34;4977780;28;20089;-92
2023/01/05 09:26:17;;;;;;;49.40;7.57;;;;;;;9.40;100.00;101763.03;4993828;28;20026;-95
2023/01/05 09:28:43;;;;;;;39.88;7.65;;;;;;;9.41;100.00;101773.88;4989482;28;20578;-93
2023/01/05 09:31:17;;;;;;;40.30;7.43;;;;;;;9.56;100.00;101792.75;4999122;28;20058;-92
2023/01/05 09:33:48;;;;;;;37.85;6.25;;;;;;;9.62;100.00;101812.09;4990793;28;20495;-93
2023/01/05 09:36:15;;;;;;;46.03;6.40;;;;;;;9.57;100.00;101810.31;5006346;28;20042;-93
2023/01/05 09:38:41;;;;;;;42.38;9.95;;;;;;;9.60;100.00;101820.81;4977915;28;20040;-91
2023/01/05 09:41:24;;;;;;;56.83;11.35;;;;;;;9.55;100.00;101812.69;4987622;28;20034;-92
2023/01/05 09:43:55;;;;;;;48.83;7.00;;;;;;;9.51;100.00;101815.34;4990933;28;20034;-93
2023/01/05 09:46:23;;;;;;;50.42;8.75;;;;;;;9.60;100.00;101820.03;5008644;28;20052;-91
2023/01/05 09:48:56;;;;;;;40.38;8.68;;;;;;;10.14;100.00;101833.72;4985985;28;20595;-88
2023/01/05 09:51:22;;;;;;;34.72;6.00;;;;;;;10.02;100.00;101836.56;4984400;28;20033;-87
2023/01/05 09:53:47;;;;;;;49.10;9.00;;;;;;;9.97;100.00;101841.22;4987316;28;20030;-87
2023/01/05 09:56:38;;;;;;;42.70;8.60;;;;;;;9.87;100.00;101838.91;4988920;28;20096;-87
2023/01/05 09:59:10;;;;;;;45.83;6.72;;;;;;;9.92;100.00;101844.25;4988084;28;20030;-87
2023/01/05 10:01:37;;;;;;;44.80;6.65;;;;;;;9.92;100.00;101844.25;4990322;28;20045;-87
2023/01/05 10:04:22;;;;;;;42.95;6.68;;;;;;;9.90;100.00;101840.16;5002303;28;20030;-87
2023/01/05 10:07:00;;;;;;;51.30;6.78;;;;;;;9.93;100.00;101851.47;4987857;28;20343;-88
2023/01/05 10:09:32;;;;;;;47.33;7.45;;;;;;;9.83;100.00;101843.56;5001832;28;20038;-87
2023/01/05 10:15:04;;;;;;;50.15;8.63;;;;;;;9.76;100.00;101846.94;4986188;28;20058;-86
2023/01/05 10:17:34;;;;;;;39.63;6.43;;;;;;;9.87;100.00;101847.28;4989576;28;20034;-87
2023/01/05 10:20:00;;;;;;;44.20;7.05;;;;;;;9.86;100.00;101851.22;4987074;28;20026;-87
2023/01/05 10:22:44;;;;;;;56.38;8.38;;;;;;;9.98;100.00;101856.84;4987806;28;20030;-86
2023/01/05 10:25:53;;;;;;;44.97;6.53;;;;;;;9.93;100.00;101851.47;5002204;28;20058;-88
2023/01/05 10:28:26;;;;;;;36.30;6.60;;;;;;;9.94;100.00;101863.47;4943646;28;20403;-86
2023/01/05 10:31:01;;;;;;;50.95;7.53;;;;;;;9.90;100.00;101851.34;4942001;28;20560;-87
2023/01/05 10:33:48;;;;;;;36.67;7.03;;;;;;;9.94;100.00;101872.69;4963447;28;20053;-87
2023/01/05 10:36:38;;;;;;;47.85;6.10;;;;;;;9.96;100.00;101864.75;4982427;28;20769;-87
2023/01/05 10:39:29;;;;;;;40.97;6.25;;;;;;;9.96;100.00;101873.16;4997184;28;20369;-86
2023/01/05 10:42:09;;;;;;;56.40;9.32;;;;;;;10.02;100.00;101868.16;4994824;28;20027;-87
2023/01/05 10:44:58;;;;;;;44.47;6.25;;;;;;;9.94;100.00;101872.69;4998135;28;20038;-86
2023/01/05 10:47:27;;;;;;;76.03;10.63;;;;;;;10.02;100.00;101884.13;4999602;28;20042;-87
2023/01/05 10:49:53;;;;;;;44.50;8.18;;;;;;;9.98;100.00;101872.81;4984517;28;20027;-86
2023/01/05 10:52:20;;;;;;;32.95;6.85;;;;;;;10.01;100.00;101876.88;4987370;28;20084;-87
2023/01/05 10:55:00;;;;;;;48.13;9.23;;;;;;;9.97;100.00;101874.78;4989524;28;20034;-86
2023/01/05 10:57:28;;;;;;;43.20;6.70;;;;;;;10.08;100.00;101868.72;4984411;28;20026;-87
2023/01/05 11:00:09;;;;;;;37.10;8.95;;;;;;;10.05;100.00;101877.81;4993066;28;20110;-87
2023/01/05 11:02:37;;;;;;;42.53;6.68;;;;;;;10.07;100.00;101867.91;4996191;28;20557;-87
2023/01/05 11:05:22;;;;;;;37.40;8.13;;;;;;;10.02;100.00;101870.13;4999433;28;20030;-86
2023/01/05 11:08:00;;;;;;;54.65;8.43;;;;;;;10.01;100.00;101874.88;4990390;28;20030;-87
2023/01/05 11:10:54;;;;;;;46.67;6.50;;;;;;;9.98;100.00;101867.22;4981467;28;20042;-86
2023/01/05 11:13:40;;;;;;;66.93;9.38;;;;;;;10.02;100.00;101875.72;4999274;28;20034;-87
2023/01/05 11:16:21;;;;;;;46.08;8.43;;;;;;;10.07;100.00;101867.09;4989800;28;20069;-87
2023/01/05 11:18:52;;;;;;;46.30;8.30;;;;;;;10.04;100.00;101870.59;5002739;28;20026;-88
2023/01/05 11:21:20;;;;;;;57.83;8.70;;;;;;;10.10;100.00;101877.59;4976772;28;20029;-86
2023/01/05 11:23:48;;;;;;;69.35;12.80;;;;;;;10.06;100.00;101871.06;4992416;28;20062;-87
2023/01/05 11:26:16;;;;;;;67.63;12.23;;;;;;;10.07;100.00;101872.69;4985833;28;20046;-87
2023/01/05 11:29:01;;;;;;;46.95;8.77;;;;;;;10.10;100.00;101872.81;4986871;28;20034;-86
2023/01/05 11:31:31;;;;;;;52.97;7.35;;;;;;;10.20;100.00;101874.28;4997581;28;20023;-86
2023/01/05 11:33:58;;;;;;;41.53;8.35;;;;;;;10.11;100.00;101873.63;4996460;28;20038;-87
2023/01/05 11:36:24;;;;;;;36.08;7.03;;;;;;;10.14;100.00;101882.13;4987547;28;20164;-87
2023/01/05 11:38:54;;;;;;;47.83;9.52;;;;;;;10.10;100.00;101885.97;4985142;28;20401;-87
2023/01/05 11:41:21;;;;;;;57.13;8.70;;;;;;;10.14;100.00;101889.69;4983207;28;20621;-88
2023/01/05 11:43:48;;;;;;;37.20;9.75;;;;;;;10.13;100.00;101877.69;4984759;28;20137;-87
2023/01/05 11:46:14;;;;;;;41.75;7.88;;;;;;;9.97;100.00;101862.75;4996063;28;20026;-86
2023/01/05 11:48:54;;;;;;;45.92;8.10;;;;;;;10.14;100.00;101884.09;4984310;28;20394;-87
2023/01/05 11:51:33;;;;;;;68.55;7.95;;;;;;;10.15;100.00;101882.94;4979901;28;20104;-86
2023/01/05 11:53:59;;;;;;;50.75;7.50;;;;;;;10.15;100.00;101883.75;4984657;28;20026;-88
2023/01/05 11:56:25;;;;;;;40.58;8.13;;;;;;;10.16;100.00;101876.16;4983085;28;20030;-88
2023/01/05 11:58:56;;;;;;;37.42;8.40;;;;;;;10.18;100.00;101865.44;4985900;28;20030;-88